Blairstown, IA (52209)

3:46 AM CST on March 06, 2015 (GMT -0600)
South West Btown | Change Station
CLOSE
Current Station
Personal Weather Station
Location: Blairstown, IA
Elevation: 866 ft
Nearby Weather Stations

Elev 866 ft 41.91 °N, 92.09 °W | Updated 18 seconds ago

Partly Cloudy
Partly Cloudy
7.7 °F
Feels Like -4 °F
N
7.4
Wind Variable Wind from South
Gusts 12.0 mph

Today
High -- | Low -- °F
--% Chance of Precip.
Yesterday
High -- | Low -- °F
Precip. -- in
6:35 AM 6:04 PM
Full, 100% visible
Pressure 30.37 in
Visibility 10.0 miles
Clouds Few 12000 ft
Windchill -4 °F
Dew Point 2 °F
Humidity 79%
Rainfall in
Snow Depth Not available.
UV 0 out of 12
Pollen .50 out of 12
Air Quality Not available.
Flu Activity Not available.
METAR KCID 060852Z 16007KT 10SM FEW120 M15/M18 A3037

More Conditions Fewer Conditions

Pressure 30.37 in
Visibility 10.0 miles
Clouds Few 12000 ft
Windchill -4 °F
Dew Point 2 °F
Humidity 79%
Rainfall in
Snow Depth Not available.
UV 0 out of 12
Pollen .50 out of 12
Air Quality Not available.
Flu Activity Not available.
METAR KCID 060852Z 16007KT 10SM FEW120 M15/M18 A3037

More Conditions Fewer Conditions

10-Day Weather Forecast

Almanac

Astronomy

Mar. 06, 2015 Rise Set
Actual Time
Civil Twilight
Nautical Twilight
Astronomical Twilight
Moon
Length of Visible Light
Length of Day
Tomorrow will be .
, % of the Moon is Illuminated

Today's Extremes

State Highs State Lows

Community

WunderPhotos

Upload Photos

1,803,213 photos uploaded!

WunderBlogs® & News

Nearby

Air Quality

  Air Quality AQ Index Pollutant
Not available.

Snow Depth

Station Depth Elevation

Earthquake Activity

City Distance Mag. Time & Date
Minimum magnitude displayed is 2.5.

Coastal Water Temperatures

Place Temperature

Nearby Weather Stations